Agios Georgios I — SX9857 — position and weather

sailwx.info

Track history (hours):
 
Tides and Currents Weather Stations Pressure Air Temp Water Temp Dewpoint Dewpoint Depression Visibility Wind Speed Wind Dir Waves Ship Positions

Agios Georgios I

Last reported at 2017-Jan-17 20:31 UTC. Time now 2017-Jan-18 10:07 UTC.
Position N 37°11' E 025°10'.

Length 59 m; draft 5 m.

Type: Ship (hazmat cat B). MMSI: 239912000.

Date/timePositionNaut miles runAvg speedWind from/ knotsBaromVisibWave heightAir tempDewpointWater temp
2017-Jan-17 20:31N 37°11' E 025°10'8 8.4
2017-Jan-17 19:33N 37°18' E 025°14'8 8.4
2017-Jan-17 18:33N 37°26' E 025°17'2 0.6
2017-Jan-17 14:19N 37°28' E 025°20'7 9.0
2017-Jan-17 13:33N 37°27' E 025°11'  
2017-Jan-14 08:27N 38°18' E 024°35'18 8.7
2017-Jan-14 06:20N 37°60' E 024°39'6 8.1
2017-Jan-14 05:33N 37°53' E 024°41'3 2.7
2017-Jan-14 04:33N 37°53' E 024°44'0 0.0
2017-Jan-14 03:33N 37°53' E 024°44'49 4.9
2017-Jan-13 17:28N 37°38' E 023°45'7 8.2
2017-Jan-13 16:33N 37°45' E 023°40'9 8.8
2017-Jan-13 15:33N 37°53' E 023°35'5 4.8
2017-Jan-13 14:33N 37°58' E 023°35'0 0.0
2017-Jan-13 13:33N 37°58' E 023°35'0 0.0
2017-Jan-13 12:33N 37°58' E 023°35'0 0.0
2017-Jan-13 11:33N 37°58' E 023°35'0 0.0
2017-Jan-13 10:33N 37°58' E 023°35'0 0.0
2017-Jan-13 09:33N 37°58' E 023°35'0 0.0
2017-Jan-13 08:33N 37°58' E 023°35'0 0.0
2017-Jan-13 07:33N 37°58' E 023°35'0 0.0
2017-Jan-13 06:33N 37°58' E 023°35'0 0.0
2017-Jan-13 05:33N 37°58' E 023°35'0 0.0
2017-Jan-13 04:33N 37°58' E 023°35'5 4.5
2017-Jan-13 03:33N 37°53' E 023°37'8 8.2
2017-Jan-13 02:33N 37°46' E 023°42'8 7.8
2017-Jan-13 01:33N 37°40' E 023°47'11 8.3
2017-Jan-13 00:13N 37°36' E 024°00'54 8.1
2017-Jan-12 17:33N 37°31' E 025°08'9 8.6
2017-Jan-12 16:31N 37°32' E 025°19'10 8.5
2017-Jan-12 15:21N 37°35' E 025°31'3 0.1
2017-Jan-11 00:28N 37°33' E 025°29'9 9.2
2017-Jan-10 23:33N 37°31' E 025°18'9 8.8
2017-Jan-10 22:33N 37°28' E 025°08'85 1.7
2017-Jan-08 20:11N 38°45' E 025°54'5 8.6
2017-Jan-08 19:33N 38°47' E 026°01'9 8.6
2017-Jan-08 18:33N 38°50' E 026°11'8 8.4
2017-Jan-08 17:33N 38°53' E 026°21'9 8.6
2017-Jan-08 16:33N 38°57' E 026°31'8 7.5
2017-Jan-08 15:33N 39°03' E 026°37'4 3.4
2017-Jan-08 14:18N 39°06' E 026°33'0 0.0
2017-Jan-08 12:26N 39°06' E 026°33'0 0.0
2017-Jan-08 11:33N 39°06' E 026°33'0 0.0
2017-Jan-08 10:33N 39°06' E 026°33'0 0.0
2017-Jan-08 09:33N 39°06' E 026°33'0 0.0
2017-Jan-08 08:33N 39°06' E 026°33'0 0.0
2017-Jan-08 07:33N 39°06' E 026°33'0 0.0
2017-Jan-08 06:31N 39°06' E 026°33'0 0.0
2017-Jan-08 05:33N 39°06' E 026°33'0 0.0
2017-Jan-08 04:33N 39°06' E 026°33'0 0.0
2017-Jan-08 03:33N 39°06' E 026°33'0 0.0
2017-Jan-08 02:33N 39°06' E 026°33'0 0.0
2017-Jan-08 01:33N 39°06' E 026°33'0 0.0
2017-Jan-08 00:33N 39°06' E 026°33'0 0.0
2017-Jan-07 23:33N 39°06' E 026°33'0 0.0
2017-Jan-07 22:32N 39°06' E 026°33'0 0.0
2017-Jan-07 21:15N 39°06' E 026°33'  
Track history (hours):
 
Tides and Currents Weather Stations Pressure Air Temp Water Temp Dewpoint Dewpoint Depression Visibility Wind Speed Wind Dir Waves Ship Positions

Agios Georgios I

Last reported at 2017-Jan-17 20:31 UTC. Time now 2017-Jan-18 10:07 UTC.
Position N 37°11' E 025°10'.

Length 59 m; draft 5 m.

Type: Ship (hazmat cat B). MMSI: 239912000.

Date/timePositionNaut miles runAvg speedWind from/ knotsBaromVisibWave heightAir tempDewpointWater temp
2017-Jan-17 20:31N 37°11' E 025°10'8 8.4
2017-Jan-17 19:33N 37°18' E 025°14'8 8.4
2017-Jan-17 18:33N 37°26' E 025°17'2 0.6
2017-Jan-17 14:19N 37°28' E 025°20'7 9.0
2017-Jan-17 13:33N 37°27' E 025°11'  
2017-Jan-14 08:27N 38°18' E 024°35'18 8.7
2017-Jan-14 06:20N 37°60' E 024°39'6 8.1
2017-Jan-14 05:33N 37°53' E 024°41'3 2.7
2017-Jan-14 04:33N 37°53' E 024°44'0 0.0
2017-Jan-14 03:33N 37°53' E 024°44'49 4.9
2017-Jan-13 17:28N 37°38' E 023°45'7 8.2
2017-Jan-13 16:33N 37°45' E 023°40'9 8.8
2017-Jan-13 15:33N 37°53' E 023°35'5 4.8
2017-Jan-13 14:33N 37°58' E 023°35'0 0.0
2017-Jan-13 13:33N 37°58' E 023°35'0 0.0
2017-Jan-13 12:33N 37°58' E 023°35'0 0.0
2017-Jan-13 11:33N 37°58' E 023°35'0 0.0
2017-Jan-13 10:33N 37°58' E 023°35'0 0.0
2017-Jan-13 09:33N 37°58' E 023°35'0 0.0
2017-Jan-13 08:33N 37°58' E 023°35'0 0.0
2017-Jan-13 07:33N 37°58' E 023°35'0 0.0
2017-Jan-13 06:33N 37°58' E 023°35'0 0.0
2017-Jan-13 05:33N 37°58' E 023°35'0 0.0
2017-Jan-13 04:33N 37°58' E 023°35'5 4.5
2017-Jan-13 03:33N 37°53' E 023°37'8 8.2
2017-Jan-13 02:33N 37°46' E 023°42'8 7.8
2017-Jan-13 01:33N 37°40' E 023°47'11 8.3
2017-Jan-13 00:13N 37°36' E 024°00'54 8.1
2017-Jan-12 17:33N 37°31' E 025°08'9 8.6
2017-Jan-12 16:31N 37°32' E 025°19'10 8.5
2017-Jan-12 15:21N 37°35' E 025°31'3 0.1
2017-Jan-11 00:28N 37°33' E 025°29'9 9.2
2017-Jan-10 23:33N 37°31' E 025°18'9 8.8
2017-Jan-10 22:33N 37°28' E 025°08'85 1.7
2017-Jan-08 20:11N 38°45' E 025°54'5 8.6
2017-Jan-08 19:33N 38°47' E 026°01'9 8.6
2017-Jan-08 18:33N 38°50' E 026°11'8 8.4
2017-Jan-08 17:33N 38°53' E 026°21'9 8.6
2017-Jan-08 16:33N 38°57' E 026°31'8 7.5
2017-Jan-08 15:33N 39°03' E 026°37'4 3.4
2017-Jan-08 14:18N 39°06' E 026°33'0 0.0
2017-Jan-08 12:26N 39°06' E 026°33'0 0.0
2017-Jan-08 11:33N 39°06' E 026°33'0 0.0
2017-Jan-08 10:33N 39°06' E 026°33'0 0.0
2017-Jan-08 09:33N 39°06' E 026°33'0 0.0
2017-Jan-08 08:33N 39°06' E 026°33'0 0.0
2017-Jan-08 07:33N 39°06' E 026°33'0 0.0
2017-Jan-08 06:31N 39°06' E 026°33'0 0.0
2017-Jan-08 05:33N 39°06' E 026°33'0 0.0
2017-Jan-08 04:33N 39°06' E 026°33'0 0.0
2017-Jan-08 03:33N 39°06' E 026°33'0 0.0
2017-Jan-08 02:33N 39°06' E 026°33'0 0.0
2017-Jan-08 01:33N 39°06' E 026°33'0 0.0
2017-Jan-08 00:33N 39°06' E 026°33'0 0.0
2017-Jan-07 23:33N 39°06' E 026°33'0 0.0
2017-Jan-07 22:32N 39°06' E 026°33'0 0.0
2017-Jan-07 21:15N 39°06' E 026°33'  

Dump ship's entire track history